createdAt,value
2018-02-20T00:00:17.396Z,0.00
2018-02-20T00:01:17.314Z,0.00
2018-02-20T00:02:17.276Z,0.00
2018-02-20T00:03:17.225Z,0.00
2018-02-20T00:04:17.184Z,0.00
2018-02-20T00:05:17.134Z,0.00
2018-02-20T00:06:17.123Z,0.00
2018-02-20T00:07:17.046Z,0.00
2018-02-20T00:08:17.013Z,0.00
2018-02-20T00:09:16.955Z,0.00
2018-02-20T00:10:16.904Z,0.00
2018-02-20T00:11:16.861Z,0.00
2018-02-20T00:12:16.844Z,0.00
2018-02-20T00:13:16.766Z,0.00
2018-02-20T00:14:16.731Z,0.00
2018-02-20T00:15:16.684Z,0.00
2018-02-20T00:16:16.637Z,0.00
2018-02-20T00:17:16.595Z,0.00
2018-02-20T00:18:16.569Z,0.00
2018-02-20T00:19:16.496Z,0.00
2018-02-20T00:20:16.447Z,0.00
2018-02-20T00:21:16.401Z,0.00
2018-02-20T00:22:16.354Z,0.00
2018-02-20T00:23:16.309Z,0.00
2018-02-20T00:24:16.293Z,0.00
2018-02-20T00:25:16.235Z,0.00
2018-02-20T00:26:16.179Z,0.00
2018-02-20T00:27:16.131Z,0.00
2018-02-20T00:28:16.082Z,0.00
2018-02-20T00:29:16.041Z,0.00
2018-02-20T00:30:16.019Z,0.00
2018-02-20T00:31:15.946Z,0.00
2018-02-20T00:32:15.902Z,0.00
2018-02-20T00:33:15.847Z,0.00
2018-02-20T00:34:15.803Z,0.00
2018-02-20T00:35:15.762Z,0.00
2018-02-20T00:36:15.742Z,0.00
2018-02-20T00:37:15.690Z,0.00
2018-02-20T00:38:15.647Z,0.00
2018-02-20T00:39:15.577Z,0.00
2018-02-20T00:40:15.526Z,0.00
2018-02-20T00:41:15.478Z,0.00
2018-02-20T00:42:15.464Z,0.00
2018-02-20T00:43:15.389Z,0.00
2018-02-20T00:44:15.351Z,0.00
2018-02-20T00:45:15.300Z,0.00
2018-02-20T00:46:15.257Z,0.00
2018-02-20T00:47:15.200Z,0.00
2018-02-20T00:48:15.189Z,0.00
2018-02-20T00:49:15.115Z,0.00
2018-02-20T00:50:15.069Z,0.00
2018-02-20T00:51:15.017Z,0.00
2018-02-20T00:52:14.972Z,0.00
2018-02-20T00:53:14.924Z,0.00
2018-02-20T00:54:14.911Z,0.00
2018-02-20T00:55:14.836Z,0.00
2018-02-20T00:56:14.790Z,0.00
2018-02-20T00:57:14.742Z,0.00
2018-02-20T00:58:14.699Z,0.00
2018-02-20T00:59:14.652Z,0.00
2018-02-20T01:00:14.630Z,0.00
2018-02-20T01:01:14.550Z,0.00
2018-02-20T01:02:14.510Z,0.00
2018-02-20T01:03:14.462Z,0.00
2018-02-20T01:04:14.429Z,0.00
2018-02-20T01:05:14.373Z,0.00
2018-02-20T01:06:14.355Z,0.00
2018-02-20T01:07:14.273Z,0.00
2018-02-20T01:08:14.234Z,0.00
2018-02-20T01:09:14.191Z,0.00
2018-02-20T01:10:14.141Z,0.00
2018-02-20T01:11:14.097Z,0.00
2018-02-20T01:12:14.078Z,0.00
2018-02-20T01:13:14.000Z,0.00
2018-02-20T01:14:13.948Z,0.00
2018-02-20T01:15:13.901Z,0.00
2018-02-20T01:16:13.855Z,0.00
2018-02-20T01:17:13.809Z,0.00
2018-02-20T01:18:13.789Z,0.00
2018-02-20T01:19:13.713Z,0.00
2018-02-20T01:20:13.674Z,0.00
2018-02-20T01:21:13.630Z,0.00
2018-02-20T01:22:13.583Z,0.00
2018-02-20T01:23:13.532Z,0.00
2018-02-20T01:24:13.513Z,0.00
2018-02-20T01:25:13.438Z,0.00
2018-02-20T01:26:13.395Z,0.00
2018-02-20T01:27:13.348Z,0.00
2018-02-20T01:28:13.291Z,0.00
2018-02-20T01:29:13.281Z,0.00
2018-02-20T01:30:13.236Z,0.00
2018-02-20T01:31:13.159Z,0.00
2018-02-20T01:32:13.107Z,0.00
2018-02-20T01:33:13.068Z,0.00
2018-02-20T01:34:13.033Z,0.00
2018-02-20T01:35:12.972Z,0.00
2018-02-20T01:36:12.953Z,0.00
2018-02-20T01:37:12.887Z,0.00
2018-02-20T01:38:12.836Z,0.00
2018-02-20T01:39:12.782Z,0.00
2018-02-20T01:40:12.746Z,0.00
2018-02-20T01:41:12.699Z,0.00
2018-02-20T01:42:12.673Z,0.00
2018-02-20T01:43:12.595Z,0.00
2018-02-20T01:44:12.548Z,0.00
2018-02-20T01:45:12.502Z,0.00
2018-02-20T01:46:12.464Z,0.00
2018-02-20T01:47:12.434Z,0.00
2018-02-20T01:48:12.370Z,0.00
2018-02-20T01:49:12.317Z,0.00
2018-02-20T01:50:12.277Z,0.00
2018-02-20T01:51:12.216Z,0.00
2018-02-20T01:52:12.214Z,0.00
2018-02-20T01:53:12.126Z,0.00
2018-02-20T01:54:12.087Z,0.00
2018-02-20T01:55:12.036Z,0.00
2018-02-20T01:56:11.985Z,0.00
2018-02-20T01:57:11.980Z,0.00
2018-02-20T01:58:11.891Z,0.00
2018-02-20T01:59:11.852Z,0.00
2018-02-20T02:00:11.802Z,0.00
2018-02-20T02:01:11.754Z,0.00
2018-02-20T02:02:11.734Z,0.00
2018-02-20T02:03:11.669Z,0.00
2018-02-20T02:04:11.615Z,0.00
2018-02-20T02:05:11.561Z,0.00
2018-02-20T02:06:11.524Z,0.00
2018-02-20T02:07:11.468Z,0.00
2018-02-20T02:08:11.444Z,0.00
2018-02-20T02:09:11.378Z,0.00
2018-02-20T02:10:11.337Z,0.00
2018-02-20T02:11:11.279Z,0.00
2018-02-20T02:12:11.232Z,0.00
2018-02-20T02:13:11.213Z,0.00
2018-02-20T02:14:11.145Z,0.00
2018-02-20T02:15:11.102Z,0.00
2018-02-20T02:16:11.047Z,0.00
2018-02-20T02:17:10.999Z,0.00
2018-02-20T02:18:10.982Z,0.00
2018-02-20T02:19:10.905Z,0.00
2018-02-20T02:20:10.869Z,0.00
2018-02-20T02:21:10.819Z,0.00
2018-02-20T02:22:10.773Z,0.00
2018-02-20T02:23:10.714Z,0.00
2018-02-20T02:24:10.704Z,0.00
2018-02-20T02:25:10.628Z,0.00
2018-02-20T02:26:10.585Z,0.00
2018-02-20T02:27:10.530Z,0.00
2018-02-20T02:28:10.491Z,0.00
2018-02-20T02:29:10.461Z,0.00
2018-02-20T02:30:10.398Z,0.00
2018-02-20T02:31:10.349Z,0.00
2018-02-20T02:32:10.300Z,0.00
2018-02-20T02:33:10.254Z,0.00
2018-02-20T02:34:10.203Z,0.00
2018-02-20T02:35:10.175Z,0.00
2018-02-20T02:36:10.106Z,0.00
2018-02-20T02:37:10.065Z,0.00
2018-02-20T02:38:10.018Z,0.00
2018-02-20T02:39:09.965Z,0.00
2018-02-20T02:40:09.948Z,0.00
2018-02-20T02:41:09.879Z,0.00
2018-02-20T02:42:09.833Z,0.00
2018-02-20T02:43:09.784Z,0.00
2018-02-20T02:44:09.731Z,0.00
2018-02-20T02:45:09.718Z,0.00
2018-02-20T02:46:09.647Z,0.00
2018-02-20T02:47:09.597Z,0.00
2018-02-20T02:48:09.560Z,0.00
2018-02-20T02:49:09.497Z,0.00
2018-02-20T02:50:09.468Z,0.00
2018-02-20T02:51:09.434Z,0.00
2018-02-20T02:52:09.352Z,0.00
2018-02-20T02:53:09.308Z,0.00
2018-02-20T02:54:09.260Z,0.00
2018-02-20T02:55:09.250Z,0.00
2018-02-20T02:56:09.163Z,0.00
2018-02-20T02:57:09.125Z,0.00
2018-02-20T02:58:09.072Z,0.00
2018-02-20T02:59:09.030Z,0.00
2018-02-20T03:00:08.979Z,0.00
2018-02-20T03:01:08.965Z,0.00
2018-02-20T03:02:08.891Z,0.00
2018-02-20T03:03:08.842Z,0.00
2018-02-20T03:04:08.799Z,0.00
2018-02-20T03:05:08.745Z,0.00
2018-02-20T03:06:08.715Z,0.00
2018-02-20T03:07:08.651Z,0.00
2018-02-20T03:08:08.597Z,0.00
2018-02-20T03:09:08.550Z,0.00
2018-02-20T03:10:08.511Z,0.00
2018-02-20T03:11:08.485Z,0.00
2018-02-20T03:12:08.409Z,0.00
2018-02-20T03:13:08.370Z,0.00
2018-02-20T03:14:08.315Z,0.00
2018-02-20T03:15:08.267Z,0.00
2018-02-20T03:16:08.247Z,0.00
2018-02-20T03:17:08.179Z,0.00
2018-02-20T03:18:08.128Z,0.00
2018-02-20T03:19:08.087Z,0.00
2018-02-20T03:20:08.038Z,0.00
2018-02-20T03:21:08.012Z,0.00
2018-02-20T03:22:07.934Z,0.00
2018-02-20T03:23:07.900Z,0.00
2018-02-20T03:24:07.854Z,0.00
2018-02-20T03:25:07.798Z,0.00
2018-02-20T03:26:07.755Z,0.00
2018-02-20T03:27:07.735Z,0.00
2018-02-20T03:28:07.664Z,0.00
2018-02-20T03:29:07.609Z,0.00
2018-02-20T03:30:07.560Z,0.00
2018-02-20T03:31:07.514Z,0.00
2018-02-20T03:32:07.485Z,0.00
2018-02-20T03:33:07.418Z,0.00
2018-02-20T03:34:07.373Z,0.00
2018-02-20T03:35:07.341Z,0.00
2018-02-20T03:36:07.270Z,0.00
2018-02-20T03:37:07.259Z,0.00
2018-02-20T03:38:07.180Z,0.00
2018-02-20T03:39:07.139Z,0.00
2018-02-20T03:40:07.085Z,0.00
2018-02-20T03:41:07.060Z,0.00
2018-02-20T03:42:07.023Z,0.00
2018-02-20T03:43:06.946Z,0.00
2018-02-20T03:44:06.900Z,0.00
2018-02-20T03:45:06.856Z,0.00
2018-02-20T03:46:06.815Z,0.00
2018-02-20T03:47:06.792Z,0.00
2018-02-20T03:48:06.707Z,0.00
2018-02-20T03:49:06.673Z,0.00
2018-02-20T03:50:06.616Z,0.00
2018-02-20T03:51:06.578Z,0.00
2018-02-20T03:52:06.526Z,0.00
2018-02-20T03:53:06.498Z,0.00
2018-02-20T03:54:06.423Z,0.00
2018-02-20T03:55:06.378Z,0.00
2018-02-20T03:56:06.329Z,0.00
2018-02-20T03:57:06.280Z,0.00
2018-02-20T03:58:06.260Z,0.00
2018-02-20T03:59:06.193Z,0.00
2018-02-20T04:00:06.158Z,0.00
2018-02-20T04:01:06.099Z,0.00
2018-02-20T04:02:06.055Z,0.00
2018-02-20T04:03:06.018Z,0.00
2018-02-20T04:04:05.955Z,0.00
2018-02-20T04:05:05.904Z,0.00
2018-02-20T04:06:05.867Z,0.00
2018-02-20T04:07:05.806Z,0.00
2018-02-20T04:08:05.793Z,0.00
2018-02-20T04:09:05.720Z,0.00
2018-02-20T04:10:05.675Z,0.00
2018-02-20T04:11:05.618Z,0.00
2018-02-20T04:12:05.576Z,0.00
2018-02-20T04:13:05.549Z,0.00
2018-02-20T04:14:05.481Z,0.00
2018-02-20T04:15:05.431Z,0.00
2018-02-20T04:16:05.394Z,0.00
2018-02-20T04:17:05.337Z,0.00
2018-02-20T04:18:05.295Z,0.00
2018-02-20T04:19:05.272Z,0.00
2018-02-20T04:20:05.202Z,0.00
2018-02-20T04:21:05.150Z,0.00
2018-02-20T04:22:05.108Z,0.00
2018-02-20T04:23:05.055Z,0.00
2018-02-20T04:24:05.038Z,0.00
2018-02-20T04:25:04.965Z,0.00
2018-02-20T04:26:04.923Z,0.00
2018-02-20T04:27:04.864Z,0.00
2018-02-20T04:28:04.817Z,0.00
2018-02-20T04:29:04.798Z,0.00
2018-02-20T04:30:04.732Z,0.00
2018-02-20T04:31:04.684Z,0.00
2018-02-20T04:32:04.635Z,0.00
2018-02-20T04:33:04.583Z,0.00
2018-02-20T04:34:04.568Z,0.00
2018-02-20T04:35:04.485Z,0.00
2018-02-20T04:36:04.444Z,0.00
2018-02-20T04:37:04.399Z,0.00
2018-02-20T04:38:04.347Z,0.00
2018-02-20T04:39:04.307Z,0.00
2018-02-20T04:40:04.285Z,0.00
2018-02-20T04:41:04.207Z,0.00
2018-02-20T04:42:04.156Z,0.00
2018-02-20T04:43:04.118Z,0.00
2018-02-20T04:44:04.073Z,0.00
2018-02-20T04:45:04.039Z,0.00
2018-02-20T04:46:03.975Z,0.00
2018-02-20T04:47:03.917Z,0.00
2018-02-20T04:48:03.880Z,0.00
2018-02-20T04:49:03.826Z,0.00
2018-02-20T04:50:03.807Z,0.00
2018-02-20T04:51:03.738Z,0.00
2018-02-20T04:52:03.690Z,0.00
2018-02-20T04:53:03.637Z,0.00
2018-02-20T04:54:03.591Z,0.00
2018-02-20T04:55:03.566Z,0.00
2018-02-20T04:56:03.493Z,0.00
2018-02-20T04:57:03.448Z,0.00
2018-02-20T04:58:03.407Z,0.00
2018-02-20T04:59:03.358Z,0.00
2018-02-20T05:00:03.339Z,0.00
2018-02-20T05:01:03.261Z,0.00
2018-02-20T05:02:03.216Z,0.00
2018-02-20T05:03:03.165Z,0.00
2018-02-20T05:04:03.115Z,0.00
2018-02-20T05:05:03.066Z,0.00
2018-02-20T05:06:03.044Z,0.00
2018-02-20T05:07:02.971Z,0.00
2018-02-20T05:08:02.931Z,0.00
2018-02-20T05:09:02.884Z,0.00
2018-02-20T05:10:02.833Z,0.00
2018-02-20T05:11:02.805Z,0.00
2018-02-20T05:12:02.733Z,0.00
2018-02-20T05:13:02.691Z,0.00
2018-02-20T05:14:02.645Z,0.00
2018-02-20T05:15:02.591Z,0.00
2018-02-20T05:16:02.565Z,0.00
2018-02-20T05:17:02.502Z,0.00
2018-02-20T05:18:02.448Z,0.00
2018-02-20T05:19:02.409Z,0.00
2018-02-20T05:20:02.391Z,0.00
2018-02-20T05:21:02.330Z,0.00
2018-02-20T05:22:02.256Z,0.00
2018-02-20T05:23:02.216Z,0.00
2018-02-20T05:24:02.169Z,0.00
2018-02-20T05:25:02.115Z,0.00
2018-02-20T05:26:02.096Z,0.00
2018-02-20T05:27:02.022Z,0.00
2018-02-20T05:28:02.020Z,0.00
2018-02-20T05:29:01.930Z,0.00
2018-02-20T05:30:01.884Z,0.00
2018-02-20T05:31:01.837Z,0.00
2018-02-20T05:32:01.802Z,0.00
2018-02-20T05:33:01.737Z,0.00
2018-02-20T05:34:01.691Z,0.00
2018-02-20T05:35:01.640Z,0.00
2018-02-20T05:36:01.588Z,0.00
2018-02-20T05:37:01.568Z,0.00
2018-02-20T05:38:01.504Z,0.00
2018-02-20T05:39:01.452Z,0.00
2018-02-20T05:40:01.410Z,0.00
2018-02-20T05:41:01.368Z,0.00
2018-02-20T05:42:01.334Z,0.00
2018-02-20T05:43:01.261Z,0.00
2018-02-20T05:44:01.215Z,0.00
2018-02-20T05:45:01.162Z,0.00
2018-02-20T05:46:01.114Z,0.00
2018-02-20T05:47:01.098Z,0.00
2018-02-20T05:48:01.025Z,0.00
2018-02-20T05:49:00.973Z,0.00
2018-02-20T05:50:00.935Z,0.00
2018-02-20T05:51:00.874Z,0.00
2018-02-20T05:52:00.862Z,0.00
2018-02-20T05:53:00.849Z,0.00
2018-02-20T05:54:00.738Z,0.00
2018-02-20T05:55:00.681Z,0.00
2018-02-20T05:56:00.643Z,0.00
2018-02-20T05:57:00.589Z,0.00
2018-02-20T05:58:00.561Z,0.00
2018-02-20T05:59:00.493Z,0.00
2018-02-20T06:00:00.452Z,0.00
2018-02-20T06:01:00.403Z,0.00
2018-02-20T06:02:00.355Z,0.00
2018-02-20T06:03:00.332Z,0.00
2018-02-20T06:04:00.261Z,0.00
2018-02-20T06:05:00.216Z,4.00
2018-02-20T06:06:00.160Z,4.00
2018-02-20T06:07:00.117Z,0.00
2018-02-20T06:08:00.088Z,4.00
2018-02-20T06:09:00.018Z,4.00
2018-02-20T06:09:59.967Z,4.00
2018-02-20T06:10:59.924Z,8.00
2018-02-20T06:11:59.878Z,8.00
2018-02-20T06:12:59.855Z,8.00
2018-02-20T06:13:59.783Z,12.00
2018-02-20T06:14:59.735Z,12.00
2018-02-20T06:15:59.682Z,12.00
2018-02-20T06:16:59.644Z,20.00
2018-02-20T06:17:59.614Z,20.00
2018-02-20T06:18:59.538Z,20.00
2018-02-20T06:19:59.490Z,28.00
2018-02-20T06:20:59.449Z,32.00
2018-02-20T06:21:59.403Z,40.00
2018-02-20T06:22:59.353Z,48.00
2018-02-20T06:23:59.325Z,52.00
2018-02-20T06:24:59.257Z,60.00
2018-02-20T06:25:59.203Z,68.00
2018-02-20T06:26:59.155Z,76.00
2018-02-20T06:27:59.110Z,88.00
2018-02-20T06:28:59.097Z,100.00
2018-02-20T06:29:59.016Z,112.00
2018-02-20T06:30:58.968Z,124.00
2018-02-20T06:31:58.917Z,140.00
2018-02-20T06:32:58.916Z,156.00
2018-02-20T06:33:58.844Z,176.00
2018-02-20T06:34:58.780Z,192.00
2018-02-20T06:35:58.731Z,208.00
2018-02-20T06:36:58.682Z,228.00
2018-02-20T06:37:58.631Z,252.00
2018-02-20T06:38:58.613Z,272.00
2018-02-20T06:39:58.548Z,300.00
2018-02-20T06:40:58.504Z,320.00
2018-02-20T06:41:58.445Z,348.00
2018-02-20T06:42:58.395Z,376.00
2018-02-20T06:43:58.347Z,396.00
2018-02-20T06:44:58.321Z,432.00
2018-02-20T06:45:58.260Z,464.00
2018-02-20T06:46:58.198Z,496.00
2018-02-20T06:47:58.160Z,528.00
2018-02-20T06:48:58.102Z,564.00
2018-02-20T06:49:58.089Z,596.00
2018-02-20T06:50:58.008Z,628.00
2018-02-20T06:51:57.966Z,664.00
2018-02-20T06:52:57.913Z,700.00
2018-02-20T06:53:57.867Z,740.00
2018-02-20T06:54:57.840Z,776.00
2018-02-20T06:55:57.773Z,816.00
2018-02-20T06:56:57.733Z,856.00
2018-02-20T06:57:57.684Z,896.00
2018-02-20T06:58:57.633Z,944.00
2018-02-20T06:59:57.610Z,996.00
2018-02-20T07:00:57.543Z,1044.00
2018-02-20T07:01:57.490Z,1096.00
2018-02-20T07:02:57.448Z,1152.00
2018-02-20T07:03:57.401Z,1208.00
2018-02-20T07:04:57.358Z,1268.00
2018-02-20T07:05:57.322Z,1320.00
2018-02-20T07:06:57.260Z,1372.00
2018-02-20T07:07:57.209Z,1424.00
2018-02-20T07:08:57.155Z,1476.00
2018-02-20T07:09:57.113Z,1536.00
2018-02-20T07:10:57.083Z,1600.00
2018-02-20T07:11:57.017Z,1680.00
2018-02-20T07:12:56.980Z,1780.00
2018-02-20T07:13:56.934Z,1864.00
2018-02-20T07:14:56.885Z,1948.00
2018-02-20T07:15:56.872Z,2032.00
2018-02-20T07:16:56.791Z,2112.00
2018-02-20T07:17:56.746Z,2180.00
2018-02-20T07:18:56.701Z,2244.00
2018-02-20T07:19:56.648Z,2308.00
2018-02-20T07:20:56.630Z,2372.00
2018-02-20T07:21:56.559Z,2440.00
2018-02-20T07:22:56.518Z,2512.00
2018-02-20T07:23:56.462Z,2596.00
2018-02-20T07:24:56.424Z,2692.00
2018-02-20T07:25:56.491Z,2800.00
2018-02-20T07:26:56.323Z,2904.00
2018-02-20T07:27:56.282Z,3024.00
2018-02-20T07:28:56.242Z,3128.00
2018-02-20T07:29:56.194Z,3228.00
2018-02-20T07:30:56.142Z,3312.00
2018-02-20T07:31:56.137Z,3380.00
2018-02-20T07:32:56.072Z,3436.00
2018-02-20T07:33:56.016Z,3492.00
2018-02-20T07:34:55.974Z,3528.00
2018-02-20T07:35:55.923Z,3568.00
2018-02-20T07:36:55.904Z,3604.00
2018-02-20T07:37:55.832Z,3644.00
2018-02-20T07:38:55.792Z,3688.00
2018-02-20T07:39:55.752Z,3748.00
2018-02-20T07:40:55.705Z,3808.00
2018-02-20T07:41:55.679Z,3896.00
2018-02-20T07:42:55.618Z,3996.00
2018-02-20T07:43:55.592Z,4100.00
2018-02-20T07:44:55.538Z,4196.00
2018-02-20T07:45:55.481Z,4300.00
2018-02-20T07:46:55.466Z,4392.00
2018-02-20T07:47:55.397Z,4484.00
2018-02-20T07:48:55.362Z,4564.00
2018-02-20T07:49:55.318Z,4656.00
2018-02-20T07:50:55.268Z,4744.00
2018-02-20T07:51:55.253Z,4816.00
2018-02-20T07:52:55.181Z,4892.00
2018-02-20T07:53:55.154Z,4968.00
2018-02-20T07:54:55.099Z,5056.00
2018-02-20T07:55:55.061Z,5140.00
2018-02-20T07:56:55.022Z,5248.00
2018-02-20T07:57:54.998Z,5384.00
2018-02-20T07:58:54.929Z,5560.00
2018-02-20T07:59:54.886Z,5704.00
2018-02-20T08:00:54.855Z,5852.00
2018-02-20T08:01:54.808Z,5996.00
2018-02-20T08:02:54.785Z,6128.00
2018-02-20T08:03:54.717Z,6240.00
2018-02-20T08:04:54.701Z,6328.00
2018-02-20T08:05:54.633Z,6400.00
2018-02-20T08:06:54.595Z,6476.00
2018-02-20T08:07:54.583Z,6580.00
2018-02-20T08:08:54.533Z,6668.00
2018-02-20T08:09:54.480Z,6484.00
2018-02-20T08:10:54.490Z,6524.00
2018-02-20T08:11:54.390Z,6624.00
2018-02-20T08:12:54.383Z,6684.00
2018-02-20T08:13:54.317Z,6768.00
2018-02-20T08:14:54.271Z,6840.00
2018-02-20T08:15:54.235Z,6884.00
2018-02-20T08:16:54.188Z,6964.00
2018-02-20T08:17:54.183Z,7244.00
2018-02-20T08:18:54.109Z,7084.00
2018-02-20T08:19:54.073Z,7176.00
2018-02-20T08:20:54.031Z,7220.00
2018-02-20T08:21:53.990Z,7256.00
2018-02-20T08:22:53.961Z,7280.00
2018-02-20T08:23:53.932Z,7332.00
2018-02-20T08:24:53.873Z,7384.00
2018-02-20T08:25:53.835Z,7436.00
2018-02-20T08:26:53.801Z,7500.00
2018-02-20T08:27:53.757Z,7564.00
2018-02-20T08:28:53.750Z,7640.00
2018-02-20T08:29:53.675Z,7712.00
2018-02-20T08:30:53.643Z,7768.00
2018-02-20T08:31:53.598Z,7796.00
2018-02-20T08:32:53.564Z,7856.00
2018-02-20T08:33:53.542Z,7916.00
2018-02-20T08:34:53.489Z,7972.00
2018-02-20T08:35:53.441Z,8024.00
2018-02-20T08:36:53.412Z,8100.00
2018-02-20T08:37:53.367Z,8172.00
2018-02-20T08:38:53.352Z,8232.00
2018-02-20T08:39:53.290Z,8328.00
2018-02-20T08:40:53.250Z,8380.00
2018-02-20T08:41:53.220Z,8404.00
2018-02-20T08:42:53.185Z,8476.00
2018-02-20T08:43:53.142Z,8472.00
2018-02-20T08:44:53.125Z,8504.00
2018-02-20T08:45:53.067Z,8536.00
2018-02-20T08:46:53.020Z,8632.00
2018-02-20T08:47:52.989Z,8680.00
2018-02-20T08:48:52.947Z,8760.00
2018-02-20T08:49:52.938Z,8804.00
2018-02-20T08:50:52.882Z,8836.00
2018-02-20T08:51:52.839Z,8836.00
2018-02-20T08:52:52.800Z,8904.00
2018-02-20T08:53:52.763Z,8968.00
2018-02-20T08:54:52.748Z,8992.00
2018-02-20T08:55:52.686Z,9012.00
2018-02-20T08:56:52.643Z,9260.00
2018-02-20T08:57:52.615Z,9316.00
2018-02-20T08:58:52.567Z,9344.00
2018-02-20T08:59:52.559Z,9356.00
2018-02-20T09:00:52.493Z,9376.00
2018-02-20T09:01:52.467Z,9416.00
2018-02-20T09:02:52.420Z,9448.00
2018-02-20T09:03:52.382Z,9496.00
2018-02-20T09:04:52.378Z,9524.00
2018-02-20T09:05:52.331Z,9580.00
2018-02-20T09:06:52.269Z,9596.00
2018-02-20T09:07:52.243Z,9632.00
2018-02-20T09:08:52.206Z,9656.00
2018-02-20T09:09:52.167Z,9720.00
2018-02-20T09:10:52.149Z,9764.00
2018-02-20T09:11:52.107Z,9804.00
2018-02-20T09:12:52.063Z,9840.00
2018-02-20T09:13:52.029Z,9876.00
2018-02-20T09:14:51.984Z,9892.00
2018-02-20T09:15:51.972Z,9904.00
2018-02-20T09:16:51.920Z,9960.00
2018-02-20T09:17:51.873Z,9956.00
2018-02-20T09:18:51.850Z,9936.00
2018-02-20T09:19:51.810Z,9964.00
2018-02-20T09:20:51.793Z,9996.00
2018-02-20T09:21:51.734Z,10012.00
2018-02-20T09:22:51.704Z,9960.00
2018-02-20T09:23:51.673Z,10040.00
2018-02-20T09:24:51.644Z,10064.00
2018-02-20T09:25:51.631Z,10088.00
2018-02-20T09:26:51.571Z,10092.00
2018-02-20T09:27:51.540Z,10124.00
2018-02-20T09:28:51.505Z,10196.00
2018-02-20T09:29:51.466Z,10220.00
2018-02-20T09:30:51.461Z,10208.00
2018-02-20T09:31:51.412Z,10232.00
2018-02-20T09:32:51.363Z,10224.00
2018-02-20T09:33:51.328Z,10240.00
2018-02-20T09:34:51.299Z,10288.00
2018-02-20T09:35:51.256Z,10324.00
2018-02-20T09:36:51.253Z,10348.00
2018-02-20T09:37:51.214Z,10320.00
2018-02-20T09:38:51.161Z,10344.00
2018-02-20T09:39:51.131Z,10348.00
2018-02-20T09:40:51.101Z,10368.00
2018-02-20T09:41:51.081Z,10388.00
2018-02-20T09:42:51.022Z,10360.00
2018-02-20T09:43:50.992Z,10252.00
2018-02-20T09:44:50.960Z,10148.00
2018-02-20T09:45:50.933Z,10096.00
2018-02-20T09:46:50.926Z,10124.00
2018-02-20T09:47:50.878Z,10204.00
2018-02-20T09:48:50.865Z,10204.00
2018-02-20T09:49:50.801Z,10196.00
2018-02-20T09:50:50.768Z,10144.00
2018-02-20T09:51:50.763Z,10088.00
2018-02-20T09:52:50.701Z,10124.00
2018-02-20T09:53:50.667Z,10088.00
2018-02-20T09:54:50.638Z,10100.00
2018-02-20T09:55:50.613Z,10064.00
2018-02-20T09:56:50.571Z,10092.00
2018-02-20T09:57:50.568Z,10096.00
2018-02-20T09:58:50.510Z,10076.00
2018-02-20T09:59:50.506Z,10108.00
2018-02-20T10:00:50.442Z,10088.00
2018-02-20T10:01:50.406Z,10068.00
2018-02-20T10:02:50.402Z,10092.00
2018-02-20T10:03:50.342Z,10152.00
2018-02-20T10:04:50.308Z,10212.00
2018-02-20T10:05:50.284Z,10148.00
2018-02-20T10:06:50.237Z,10284.00
2018-02-20T10:07:50.226Z,10344.00
2018-02-20T10:08:50.183Z,10392.00
2018-02-20T10:09:50.142Z,10416.00
2018-02-20T10:10:50.137Z,10424.00
2018-02-20T10:11:50.071Z,10484.00
2018-02-20T10:12:50.067Z,10536.00
2018-02-20T10:13:50.002Z,10548.00
2018-02-20T10:14:49.976Z,10560.00
2018-02-20T10:15:49.942Z,10632.00
2018-02-20T10:16:49.911Z,10612.00
2018-02-20T10:17:49.894Z,10600.00
2018-02-20T10:18:49.848Z,10680.00
2018-02-20T10:19:49.800Z,10744.00
2018-02-20T10:20:49.766Z,10776.00
2018-02-20T10:21:49.745Z,10784.00
2018-02-20T10:22:49.738Z,10796.00
2018-02-20T10:23:49.673Z,10824.00
2018-02-20T10:24:49.635Z,10784.00
2018-02-20T10:25:49.599Z,10816.00
2018-02-20T10:26:49.569Z,10872.00
2018-02-20T10:27:49.541Z,10900.00
2018-02-20T10:28:49.528Z,10904.00
2018-02-20T10:29:49.476Z,10912.00
2018-02-20T10:30:49.433Z,10868.00
2018-02-20T10:31:49.406Z,10928.00
2018-02-20T10:32:49.398Z,10920.00
2018-02-20T10:33:49.344Z,10952.00
2018-02-20T10:34:49.298Z,10904.00
2018-02-20T10:35:49.265Z,10960.00
2018-02-20T10:36:49.242Z,11008.00
2018-02-20T10:37:49.229Z,11016.00
2018-02-20T10:38:49.172Z,11032.00
2018-02-20T10:39:49.143Z,10996.00
2018-02-20T10:40:49.114Z,11044.00
2018-02-20T10:41:49.072Z,10992.00
2018-02-20T10:42:49.076Z,11000.00
2018-02-20T10:43:49.007Z,11044.00
2018-02-20T10:44:48.969Z,11228.00
2018-02-20T10:45:48.938Z,11272.00
2018-02-20T10:46:48.906Z,11228.00
2018-02-20T10:47:48.887Z,11360.00
2018-02-20T10:48:48.875Z,11416.00
2018-02-20T10:49:48.819Z,11420.00
2018-02-20T10:50:48.783Z,11436.00
2018-02-20T10:51:48.748Z,11524.00
2018-02-20T10:52:48.748Z,11504.00
2018-02-20T10:53:48.685Z,11552.00
2018-02-20T10:54:48.659Z,11568.00
2018-02-20T10:55:48.623Z,11572.00
2018-02-20T10:56:48.603Z,11444.00
2018-02-20T10:57:48.558Z,11396.00
2018-02-20T10:58:48.558Z,11396.00
2018-02-20T10:59:48.493Z,11384.00
2018-02-20T11:00:48.471Z,11292.00
2018-02-20T11:01:48.432Z,11232.00
2018-02-20T11:02:48.397Z,11208.00
2018-02-20T11:03:48.388Z,11120.00
2018-02-20T11:04:48.335Z,11184.00
2018-02-20T11:05:48.318Z,11236.00
2018-02-20T11:06:48.281Z,11280.00
2018-02-20T11:07:48.246Z,11320.00
2018-02-20T11:08:48.244Z,11296.00
2018-02-20T11:09:48.177Z,11300.00
2018-02-20T11:10:48.152Z,11296.00
2018-02-20T11:11:48.119Z,11264.00
2018-02-20T11:12:48.088Z,11196.00
2018-02-20T11:13:48.051Z,11100.00
2018-02-20T11:14:48.052Z,11016.00
2018-02-20T11:15:47.993Z,10968.00
2018-02-20T11:16:47.956Z,11048.00
2018-02-20T11:17:47.932Z,11152.00
2018-02-20T11:18:47.923Z,11168.00
2018-02-20T11:19:47.861Z,11064.00
2018-02-20T11:20:47.833Z,11236.00
2018-02-20T11:21:47.798Z,11192.00
2018-02-20T11:22:47.766Z,11048.00
2018-02-20T11:23:47.761Z,11112.00
2018-02-20T11:24:47.721Z,11188.00
2018-02-20T11:25:47.681Z,11260.00
2018-02-20T11:26:47.647Z,11532.00
2018-02-20T11:27:47.625Z,11532.00
2018-02-20T11:28:47.610Z,11332.00
2018-02-20T11:29:47.553Z,11184.00
2018-02-20T11:30:47.518Z,11032.00
2018-02-20T11:31:47.489Z,10900.00
2018-02-20T11:32:47.457Z,10920.00
2018-02-20T11:33:47.457Z,10916.00
2018-02-20T11:34:47.395Z,11084.00
2018-02-20T11:35:47.359Z,11180.00
2018-02-20T11:36:47.333Z,11316.00
2018-02-20T11:37:47.304Z,11264.00
2018-02-20T11:38:47.270Z,10088.00
2018-02-20T11:39:47.260Z,10552.00
2018-02-20T11:40:47.211Z,9028.00
2018-02-20T11:41:47.179Z,10004.00
2018-02-20T11:42:47.189Z,9404.00
2018-02-20T11:43:47.125Z,10540.00
2018-02-20T11:44:47.097Z,9620.00
2018-02-20T11:45:47.053Z,10168.00
2018-02-20T11:46:47.020Z,10540.00
2018-02-20T11:47:46.987Z,12272.00
2018-02-20T11:48:46.947Z,12848.00
2018-02-20T11:49:46.943Z,14128.00
2018-02-20T11:50:46.882Z,14824.00
2018-02-20T11:51:46.862Z,12100.00
2018-02-20T11:52:46.819Z,11556.00
2018-02-20T11:53:46.788Z,9824.00
2018-02-20T11:54:46.769Z,9600.00
2018-02-20T11:55:46.722Z,9720.00
2018-02-20T11:56:46.681Z,9436.00
2018-02-20T11:57:46.651Z,9800.00
2018-02-20T11:58:46.623Z,9768.00
2018-02-20T11:59:46.617Z,9620.00
2018-02-20T12:00:46.554Z,9252.00
2018-02-20T12:01:46.529Z,8632.00
2018-02-20T12:02:46.493Z,9168.00
2018-02-20T12:03:46.454Z,8744.00
2018-02-20T12:04:46.422Z,9308.00
2018-02-20T12:05:46.407Z,9724.00
2018-02-20T12:06:46.350Z,10120.00
2018-02-20T12:07:46.326Z,11440.00
2018-02-20T12:08:46.277Z,9804.00
2018-02-20T12:09:46.249Z,11420.00
2018-02-20T12:10:46.227Z,10124.00
2018-02-20T12:11:46.181Z,9944.00
2018-02-20T12:12:46.140Z,10272.00
2018-02-20T12:13:46.117Z,10916.00
2018-02-20T12:14:46.079Z,10816.00
2018-02-20T12:15:46.062Z,10284.00
2018-02-20T12:16:45.996Z,10012.00
2018-02-20T12:17:45.961Z,9904.00
2018-02-20T12:18:45.925Z,9532.00
2018-02-20T12:19:45.898Z,11408.00
2018-02-20T12:20:45.886Z,10460.00
2018-02-20T12:21:45.826Z,11800.00
2018-02-20T12:22:45.783Z,11416.00
2018-02-20T12:23:45.753Z,10656.00
2018-02-20T12:24:45.717Z,11540.00
2018-02-20T12:25:45.690Z,11372.00
2018-02-20T12:26:45.668Z,11048.00
2018-02-20T12:27:45.615Z,10940.00
2018-02-20T12:28:45.584Z,12280.00
2018-02-20T12:29:45.535Z,10636.00
2018-02-20T12:30:45.501Z,10400.00
2018-02-20T12:31:45.492Z,10296.00
2018-02-20T12:32:45.431Z,10624.00
2018-02-20T12:33:45.405Z,10492.00
2018-02-20T12:34:45.366Z,10480.00
2018-02-20T12:35:45.376Z,9740.00